Time;durP1;ratioP1;P1;durP2;ratioP2;P2;SDS_P1;SDS_P2;PMS_P1;PMS_P2;Temp;Humidity;BMP_temperature;BMP_pressure;BME280_temperature;BME280_humidity;BME280_pressure;Samples;Min_cycle;Max_cycle;Signal;HPM_P1;HPM_P2
2022/12/11 00:01:27;;;;;;;25.20;11.60;;;;;;;-3.75;100.00;151619.41;5030433;28;20051;-75
2022/12/11 00:03:52;;;;;;;19.90;10.93;;;;;;;-3.70;100.00;151630.81;5056307;28;20520;-75
2022/12/11 00:06:20;;;;;;;23.40;11.82;;;;;;;-3.67;100.00;151638.44;5036416;28;20059;-75
2022/12/11 00:08:46;;;;;;;23.70;11.65;;;;;;;-3.70;100.00;151629.56;5040170;28;20036;-75
2022/12/11 00:11:16;;;;;;;24.42;11.38;;;;;;;-3.72;100.00;151627.00;5038787;28;20040;-75
2022/12/11 00:13:42;;;;;;;26.25;12.57;;;;;;;-3.77;100.00;151613.03;5022539;28;20024;-76
2022/12/11 00:16:08;;;;;;;21.60;10.75;;;;;;;-3.76;100.00;151616.84;5061269;28;20405;-76
2022/12/11 00:18:34;;;;;;;23.70;11.57;;;;;;;-3.75;100.00;151619.41;5038364;28;20032;-76
2022/12/11 00:21:01;;;;;;;26.92;12.38;;;;;;;-3.74;100.00;151621.91;5019082;28;20036;-76
2022/12/11 00:23:27;;;;;;;23.98;11.55;;;;;;;-3.65;100.00;151642.28;5032217;28;20040;-75
2022/12/11 00:25:52;;;;;;;23.13;12.13;;;;;;;-3.68;100.00;151635.88;5046588;28;20041;-75
2022/12/11 00:28:18;;;;;;;22.08;11.55;;;;;;;-3.69;100.00;151633.38;5034226;28;20040;-76
2022/12/11 00:30:44;;;;;;;20.42;10.52;;;;;;;-3.76;100.00;151616.84;5033224;28;20037;-75
2022/12/11 00:33:11;;;;;;;22.05;10.95;;;;;;;-3.71;100.00;151628.31;5046920;28;20036;-76
2022/12/11 00:35:38;;;;;;;19.70;10.30;;;;;;;-3.70;100.00;151629.56;5077777;28;20123;-76
2022/12/11 00:38:04;;;;;;;20.30;10.13;;;;;;;-3.72;100.00;151627.00;5019845;28;20041;-76
2022/12/11 00:40:33;;;;;;;20.95;10.73;;;;;;;-3.68;100.00;151634.63;5060301;28;20637;-76
2022/12/11 00:42:59;;;;;;;20.92;11.13;;;;;;;-3.66;100.00;151639.72;5026846;28;20431;-76
2022/12/11 00:45:25;;;;;;;18.40;10.57;;;;;;;-3.69;100.00;151632.06;5041661;28;20117;-76
2022/12/11 00:47:51;;;;;;;21.00;10.07;;;;;;;-3.67;100.00;151637.16;5042411;28;20130;-75
2022/12/11 00:50:16;;;;;;;21.65;11.10;;;;;;;-3.71;100.00;151628.31;5030549;28;20071;-76
2022/12/11 00:52:42;;;;;;;21.77;11.27;;;;;;;-3.68;100.00;151634.63;5026438;28;20071;-76
2022/12/11 00:55:08;;;;;;;19.30;10.32;;;;;;;-3.81;100.00;151604.13;5053662;28;20045;-76
2022/12/11 00:57:34;;;;;;;24.23;12.07;;;;;;;-3.83;100.00;151597.81;5056563;28;20032;-76
2022/12/11 01:00:00;;;;;;;25.35;11.65;;;;;;;-3.85;100.00;151592.72;5054417;28;20047;-76
2022/12/11 01:02:25;;;;;;;19.13;10.20;;;;;;;-3.83;100.00;151597.81;5041864;28;20040;-76
2022/12/11 01:04:51;;;;;;;24.42;11.00;;;;;;;-3.82;100.00;151600.34;5075319;28;20473;-76
2022/12/11 01:07:16;;;;;;;21.75;11.20;;;;;;;-3.85;100.00;151593.97;5039340;28;20051;-75
2022/12/11 01:12:27;;;;;;;22.38;11.02;;;;;;;-3.93;100.00;151574.94;5061192;28;20042;-75
2022/12/11 01:14:53;;;;;;;21.75;10.70;;;;;;;-3.91;100.00;151578.75;5044062;28;20394;-77
2022/12/11 01:17:19;;;;;;;23.38;10.65;;;;;;;-3.83;100.00;151599.06;5049816;28;20036;-76
2022/12/11 01:19:45;;;;;;;24.08;12.00;;;;;;;-3.80;100.00;151605.44;5040010;28;20032;-76
2022/12/11 01:22:10;;;;;;;20.83;11.00;;;;;;;-3.70;100.00;151629.56;5026383;28;20127;-75
2022/12/11 01:24:36;;;;;;;21.30;11.73;;;;;;;-3.73;100.00;151624.47;5050141;28;20028;-76
2022/12/11 01:27:03;;;;;;;19.58;11.57;;;;;;;-3.68;100.00;151635.88;5048682;28;20037;-76
2022/12/11 01:29:29;;;;;;;20.95;11.32;;;;;;;-3.69;100.00;151633.38;5033312;28;20040;-76
2022/12/11 01:31:54;;;;;;;26.73;12.38;;;;;;;-3.64;100.00;151644.78;5035585;28;20044;-76
2022/12/11 01:34:20;;;;;;;21.90;10.95;;;;;;;-3.69;100.00;151633.38;5039371;28;20082;-76
2022/12/11 01:36:46;;;;;;;21.27;10.27;;;;;;;-3.72;100.00;151627.00;5045056;28;20183;-76
2022/12/11 01:39:11;;;;;;;19.90;10.18;;;;;;;-3.74;100.00;151620.66;5039974;28;20443;-76
2022/12/11 01:41:38;;;;;;;21.92;10.63;;;;;;;-3.70;100.00;151630.81;5028215;28;20051;-75
2022/12/11 01:44:07;;;;;;;22.88;12.07;;;;;;;-3.74;100.00;151620.66;5063905;28;20477;-75
2022/12/11 01:46:35;;;;;;;24.17;9.85;;;;;;;-3.74;100.00;151620.66;5025598;28;20505;-75
2022/12/11 01:49:04;;;;;;;22.38;11.50;;;;;;;-3.74;100.00;151620.66;5048869;28;20777;-76
2022/12/11 01:51:34;;;;;;;23.50;11.82;;;;;;;-3.68;100.00;151634.63;5051180;28;20032;-75
2022/12/11 01:54:06;;;;;;;23.58;12.02;;;;;;;-3.75;100.00;151618.09;5044662;28;20443;-76
2022/12/11 01:56:34;;;;;;;23.45;11.80;;;;;;;-3.74;100.00;151620.66;5032229;28;20097;-76
2022/12/11 01:59:06;;;;;;;23.67;11.60;;;;;;;-3.65;100.00;151642.28;5048866;28;20031;-76
2022/12/11 02:01:46;;;;;;;26.02;11.70;;;;;;;-3.69;100.00;151633.38;5046022;28;20101;-76
2022/12/11 02:04:14;;;;;;;20.90;10.48;;;;;;;-3.73;100.00;151624.47;5033720;28;20123;-76
2022/12/11 02:06:43;;;;;;;25.52;12.82;;;;;;;-3.69;100.00;151632.06;5029875;28;20050;-76
2022/12/11 02:09:21;;;;;;;24.92;11.80;;;;;;;-3.65;100.00;151642.28;5017077;28;20090;-76
2022/12/11 02:12:21;;;;;;;26.10;12.13;;;;;;;-3.73;100.00;151623.19;5019695;28;20556;-76
2022/12/11 02:15:17;;;;;;;23.20;11.88;;;;;;;-3.74;100.00;151620.66;5015942;28;20059;-76
2022/12/11 02:17:58;;;;;;;27.65;11.90;;;;;;;-3.79;100.00;151609.22;5031442;28;20493;-76
2022/12/11 02:20:38;;;;;;;26.35;12.73;;;;;;;-3.76;100.00;151616.84;5051222;28;20036;-76
2022/12/11 02:23:25;;;;;;;21.80;12.02;;;;;;;-3.73;100.00;151624.47;5019413;28;20119;-77
2022/12/11 02:26:08;;;;;;;26.02;11.85;;;;;;;-3.74;100.00;151620.66;5045261;28;20077;-76
2022/12/11 02:28:42;;;;;;;25.77;11.68;;;;;;;-3.72;100.00;151627.00;5029265;28;20036;-76
2022/12/11 02:31:40;;;;;;;28.92;12.80;;;;;;;-3.77;100.00;151614.34;5050473;28;20055;-76
2022/12/11 02:34:31;;;;;;;26.38;11.65;;;;;;;-3.73;100.00;151624.47;5055329;28;20032;-76
2022/12/11 02:37:04;;;;;;;24.23;11.75;;;;;;;-3.77;100.00;151613.03;5029002;28;20041;-75
2022/12/11 02:39:32;;;;;;;22.02;11.20;;;;;;;-3.73;100.00;151624.47;5084957;28;20040;-76
2022/12/11 02:41:58;;;;;;;25.52;11.38;;;;;;;-3.78;100.00;151610.50;5066953;28;20032;-76
2022/12/11 02:44:29;;;;;;;22.17;11.20;;;;;;;-3.81;100.00;151604.13;5053329;28;20482;-76
2022/12/11 02:46:55;;;;;;;21.92;11.82;;;;;;;-3.79;100.00;151607.94;5046873;28;20044;-76
2022/12/11 02:49:22;;;;;;;23.42;11.68;;;;;;;-3.77;100.00;151614.34;5022873;28;20040;-75
2022/12/11 02:51:49;;;;;;;25.52;12.13;;;;;;;-3.79;100.00;151609.22;5061594;28;20799;-76
2022/12/11 02:54:21;;;;;;;22.25;11.57;;;;;;;-3.80;100.00;151605.44;5039166;28;20036;-76
2022/12/11 02:56:53;;;;;;;24.17;11.75;;;;;;;-3.71;100.00;151628.31;5035960;28;20025;-76
2022/12/11 02:59:34;;;;;;;20.58;10.93;;;;;;;-3.73;100.00;151623.19;5047489;28;20036;-75
2022/12/11 03:02:01;;;;;;;20.98;11.38;;;;;;;-3.77;100.00;151613.03;5078230;28;20032;-76
2022/12/11 03:04:28;;;;;;;25.70;11.45;;;;;;;-3.78;100.00;151610.50;5041767;28;20045;-76
2022/12/11 03:07:00;;;;;;;25.35;12.43;;;;;;;-3.80;100.00;151606.69;5058958;28;20147;-76
2022/12/11 03:09:27;;;;;;;25.00;12.43;;;;;;;-3.76;100.00;151616.84;5025800;28;20028;-77
2022/12/11 03:11:53;;;;;;;25.58;12.27;;;;;;;-3.77;100.00;151614.34;5036103;28;20051;-75
2022/12/11 03:14:19;;;;;;;23.20;11.23;;;;;;;-3.81;100.00;151602.88;5045173;28;20048;-76
2022/12/11 03:16:58;;;;;;;23.05;11.70;;;;;;;-3.77;100.00;151613.03;5044224;28;20032;-76
2022/12/11 03:19:35;;;;;;;22.88;12.00;;;;;;;-3.79;100.00;151609.22;5063633;28;20039;-76
2022/12/11 03:22:10;;;;;;;27.42;13.02;;;;;;;-3.75;100.00;151618.09;5053356;28;20040;-76
2022/12/11 03:24:48;;;;;;;25.05;12.88;;;;;;;-3.70;100.00;151630.81;5032359;28;20044;-76
2022/12/11 03:27:35;;;;;;;24.48;11.98;;;;;;;-3.77;100.00;151614.34;5031728;28;20044;-76
2022/12/11 03:30:13;;;;;;;23.02;10.88;;;;;;;-3.73;100.00;151624.47;5047085;28;20513;-76
2022/12/11 03:33:03;;;;;;;25.08;12.77;;;;;;;-3.73;100.00;151624.47;5068302;28;20032;-76
2022/12/11 03:35:31;;;;;;;25.33;12.25;;;;;;;-3.69;100.00;151633.38;5051268;28;20123;-75
2022/12/11 03:38:02;;;;;;;26.38;13.05;;;;;;;-3.70;100.00;151629.56;5059274;28;20040;-76
2022/12/11 03:40:32;;;;;;;26.58;13.32;;;;;;;-3.66;100.00;151640.97;5063905;28;20819;-76
2022/12/11 03:42:58;;;;;;;24.98;12.90;;;;;;;-3.66;100.00;151640.97;5031460;28;20028;-76
2022/12/11 03:45:26;;;;;;;27.83;13.00;;;;;;;-3.66;100.00;151640.97;5048062;28;20059;-76
2022/12/11 03:47:55;;;;;;;26.65;13.40;;;;;;;-3.66;100.00;151639.72;5025492;28;20589;-75
2022/12/11 03:50:24;;;;;;;25.40;12.85;;;;;;;-3.63;100.00;151648.59;5057420;28;20079;-77
2022/12/11 03:52:51;;;;;;;25.50;13.45;;;;;;;-3.64;100.00;151646.03;5044520;28;20123;-75
2022/12/11 03:55:19;;;;;;;25.13;13.57;;;;;;;-3.66;100.00;151640.97;5068741;28;20537;-76
2022/12/11 03:57:45;;;;;;;27.15;13.48;;;;;;;-3.63;100.00;151647.34;5020169;28;20436;-76
2022/12/11 04:00:15;;;;;;;29.40;14.00;;;;;;;-3.58;100.00;151661.31;5034914;28;20096;-75
2022/12/11 04:02:41;;;;;;;25.25;12.88;;;;;;;-3.61;100.00;151653.69;5025124;28;20035;-76
2022/12/11 04:05:08;;;;;;;25.65;13.25;;;;;;;-3.62;100.00;151649.84;5033173;28;20041;-76
2022/12/11 04:07:36;;;;;;;25.13;12.27;;;;;;;-3.62;100.00;151649.84;5060195;28;20064;-76
2022/12/11 04:10:03;;;;;;;24.33;12.70;;;;;;;-3.61;100.00;151652.41;5018690;28;20059;-76
2022/12/11 04:12:29;;;;;;;30.75;15.80;;;;;;;-3.62;100.00;151649.84;5070154;28;20039;-76
2022/12/11 04:15:00;;;;;;;26.60;13.45;;;;;;;-3.64;100.00;151644.78;5060432;28;20036;-77
2022/12/11 04:25:46;;;;;;;26.77;14.75;;;;;;;-3.61;100.00;151652.41;5075588;28;20039;-76
2022/12/11 04:28:11;;;;;;;25.33;12.18;;;;;;;-3.56;100.00;151665.09;5052512;28;20040;-75
2022/12/11 04:30:37;;;;;;;27.60;13.80;;;;;;;-3.60;100.00;151654.94;5070091;28;20063;-76
2022/12/11 04:33:03;;;;;;;26.05;13.07;;;;;;;-3.65;100.00;151643.53;5068633;28;20036;-75
2022/12/11 04:35:29;;;;;;;25.48;13.93;;;;;;;-3.61;100.00;151652.41;5023130;28;20495;-76
2022/12/11 04:37:54;;;;;;;26.67;14.15;;;;;;;-3.56;100.00;151666.41;5062296;28;20505;-76
2022/12/11 04:40:20;;;;;;;27.55;13.68;;;;;;;-3.57;100.00;151662.56;5024117;28;20043;-76
2022/12/11 04:42:46;;;;;;;26.55;13.10;;;;;;;-3.56;100.00;151666.41;5043998;28;20036;-76
2022/12/11 04:45:12;;;;;;;25.10;12.65;;;;;;;-3.54;100.00;151670.22;5053204;28;20512;-75
2022/12/11 04:47:40;;;;;;;28.25;13.25;;;;;;;-3.50;100.00;151679.06;5065267;28;20123;-76
2022/12/11 04:50:08;;;;;;;26.38;13.13;;;;;;;-3.51;100.00;151677.81;5049821;28;20028;-75
2022/12/11 04:52:36;;;;;;;27.83;14.20;;;;;;;-3.43;100.00;151696.84;5063662;28;20397;-76
2022/12/11 04:55:04;;;;;;;25.95;13.95;;;;;;;-3.45;100.00;151691.78;5089726;28;20047;-76
2022/12/11 04:57:29;;;;;;;25.10;13.35;;;;;;;-3.41;100.00;151701.94;5048511;28;20091;-76
2022/12/11 04:59:55;;;;;;;24.85;13.60;;;;;;;-3.44;100.00;151695.59;5063348;28;21557;-76
2022/12/11 05:02:21;;;;;;;28.23;13.63;;;;;;;-3.41;100.00;151701.94;5044420;28;20077;-75
2022/12/11 05:04:47;;;;;;;25.73;13.30;;;;;;;-3.42;100.00;151700.66;5047163;28;20028;-76
2022/12/11 05:07:12;;;;;;;25.00;12.82;;;;;;;-3.40;100.00;151704.50;5043681;28;20058;-76
2022/12/11 05:09:38;;;;;;;24.73;13.73;;;;;;;-3.31;100.00;151727.38;5035470;28;20692;-76
2022/12/11 05:12:03;;;;;;;24.38;13.20;;;;;;;-3.28;100.00;151733.69;5053620;28;20134;-76
2022/12/11 05:14:31;;;;;;;25.75;13.02;;;;;;;-3.30;100.00;151728.63;5041526;28;20038;-76
2022/12/11 05:16:58;;;;;;;25.90;13.05;;;;;;;-3.24;100.00;151745.16;5026077;28;20513;-76
2022/12/11 05:19:24;;;;;;;24.90;12.05;;;;;;;-3.29;100.00;151732.44;5054837;28;20081;-76
2022/12/11 05:21:49;;;;;;;21.90;12.13;;;;;;;-3.33;100.00;151723.53;5035191;28;20032;-76
2022/12/11 05:24:15;;;;;;;26.33;12.80;;;;;;;-3.33;100.00;151722.28;5049469;28;20377;-76
2022/12/11 05:26:41;;;;;;;23.90;12.55;;;;;;;-3.36;100.00;151715.91;5023769;28;20081;-76
2022/12/11 05:29:07;;;;;;;23.52;12.18;;;;;;;-3.33;100.00;151723.53;5079512;28;20039;-76
2022/12/11 05:31:32;;;;;;;20.55;11.05;;;;;;;-3.29;100.00;151732.44;5039058;28;20035;-75
2022/12/11 05:33:58;;;;;;;23.52;11.52;;;;;;;-3.27;100.00;151737.50;5051648;28;20029;-76
2022/12/11 05:36:30;;;;;;;24.35;11.65;;;;;;;-3.30;100.00;151728.63;5051778;28;20036;-76
2022/12/11 05:38:57;;;;;;;21.92;11.68;;;;;;;-3.30;100.00;151728.63;5058960;28;20456;-76
2022/12/11 05:41:25;;;;;;;24.33;11.85;;;;;;;-3.30;100.00;151729.88;5033054;28;20097;-76
2022/12/11 05:43:51;;;;;;;23.13;11.27;;;;;;;-3.28;100.00;151734.94;5004321;28;1142603;-76
2022/12/11 05:46:22;;;;;;;24.25;12.35;;;;;;;-3.21;100.00;151751.50;5028288;28;20124;-76
2022/12/11 05:48:50;;;;;;;24.75;12.10;;;;;;;-3.26;100.00;151738.78;5051467;28;20051;-76
2022/12/11 05:51:17;;;;;;;23.38;11.93;;;;;;;-3.29;100.00;151731.19;5045932;28;20039;-75
2022/12/11 05:53:44;;;;;;;21.70;11.60;;;;;;;-3.33;100.00;151722.28;5049706;28;20032;-75
2022/12/11 05:56:25;;;;;;;24.75;12.63;;;;;;;-3.36;100.00;151715.91;5039494;28;20041;-76
2022/12/11 05:58:51;;;;;;;22.00;11.80;;;;;;;-3.38;100.00;151709.56;5035127;28;20070;-76
2022/12/11 06:01:21;;;;;;;24.13;12.15;;;;;;;-3.42;100.00;151699.41;5027554;28;20036;-76
2022/12/11 06:03:47;;;;;;;25.45;12.82;;;;;;;-3.56;100.00;151666.41;5029497;28;20139;-75
2022/12/11 06:06:14;;;;;;;23.73;11.25;;;;;;;-3.61;100.00;151652.41;5031977;28;20144;-75
2022/12/11 06:08:40;;;;;;;23.10;11.80;;;;;;;-3.64;100.00;151644.78;5054930;28;20039;-76
2022/12/11 06:11:06;;;;;;;23.58;11.63;;;;;;;-3.63;100.00;151647.34;5023075;28;20029;-76
2022/12/11 06:13:32;;;;;;;23.40;12.20;;;;;;;-3.64;100.00;151646.03;5035553;28;20040;-76
2022/12/11 06:16:03;;;;;;;23.42;11.98;;;;;;;-3.68;100.00;151634.63;5047632;28;20131;-76
2022/12/11 06:18:29;;;;;;;24.27;12.55;;;;;;;-3.75;100.00;151619.41;5051956;28;20108;-76
2022/12/11 06:20:55;;;;;;;22.17;12.68;;;;;;;-3.79;100.00;151609.22;5052569;28;20138;-75
2022/12/11 06:23:21;;;;;;;25.17;12.32;;;;;;;-3.84;100.00;151595.25;5053744;28;20569;-76
2022/12/11 06:25:47;;;;;;;24.52;12.52;;;;;;;-3.92;100.00;151576.19;5047619;28;20039;-76
2022/12/11 06:28:13;;;;;;;24.65;12.23;;;;;;;-4.05;100.00;151543.19;5041654;28;20039;-76
2022/12/11 06:30:38;;;;;;;24.23;11.63;;;;;;;-4.17;100.00;151514.00;5045205;28;20039;-75
2022/12/11 06:33:04;;;;;;;25.60;12.10;;;;;;;-4.28;100.00;151487.31;5039909;28;20036;-75
2022/12/11 06:35:30;;;;;;;24.85;12.30;;;;;;;-4.39;100.00;151459.41;5017469;28;20620;-76
2022/12/11 06:37:56;;;;;;;29.27;15.13;;;;;;;-4.46;100.00;151441.63;5019125;28;20405;-76
2022/12/11 06:40:21;;;;;;;28.23;13.85;;;;;;;-4.58;100.00;151413.69;5034692;28;20045;-76
2022/12/11 06:42:47;;;;;;;29.67;14.45;;;;;;;-4.63;100.00;151399.75;5018354;28;20036;-76
2022/12/11 06:45:13;;;;;;;34.67;15.07;;;;;;;-4.67;100.00;151389.59;5037765;28;20505;-76
2022/12/11 06:47:39;;;;;;;28.88;13.70;;;;;;;-4.71;100.00;151382.00;5040333;28;20035;-76
2022/12/11 06:50:05;;;;;;;29.38;13.75;;;;;;;-4.84;100.00;151349.03;5042548;28;20029;-76
2022/12/11 06:52:30;;;;;;;28.42;13.20;;;;;;;-4.90;100.00;151335.06;5063728;28;20371;-76
2022/12/11 06:54:56;;;;;;;29.42;13.02;;;;;;;-4.96;100.00;151319.81;5039263;28;20038;-76
2022/12/11 06:57:22;;;;;;;28.38;12.90;;;;;;;-5.04;100.00;151299.53;5017188;28;20095;-76
2022/12/11 06:59:48;;;;;;;25.70;13.35;;;;;;;-5.15;100.00;151271.63;5041782;28;20040;-75
2022/12/11 07:02:19;;;;;;;26.65;13.10;;;;;;;-5.22;100.00;151255.09;5016923;28;20490;-77
2022/12/11 07:04:45;;;;;;;27.50;13.55;;;;;;;-5.28;100.00;151241.16;5047002;28;20436;-76
2022/12/11 07:07:11;;;;;;;30.45;13.40;;;;;;;-5.31;100.00;151232.31;5046717;28;20111;-76
2022/12/11 07:09:39;;;;;;;28.13;12.63;;;;;;;-5.38;100.00;151215.81;5072120;28;20135;-76
2022/12/11 07:12:05;;;;;;;28.08;13.18;;;;;;;-5.39;100.00;151213.25;5025629;28;20039;-76
2022/12/11 07:14:31;;;;;;;26.20;11.80;;;;;;;-5.40;100.00;151209.47;5028808;28;20138;-76
2022/12/11 07:16:58;;;;;;;30.02;13.15;;;;;;;-5.44;100.00;151200.59;5032037;28;20190;-76
2022/12/11 07:19:24;;;;;;;28.33;12.77;;;;;;;-5.49;100.00;151187.91;5063061;28;20032;-76
2022/12/11 07:21:50;;;;;;;26.83;12.32;;;;;;;-5.54;100.00;151176.50;5047655;28;20051;-77
2022/12/11 07:24:16;;;;;;;26.40;12.23;;;;;;;-5.51;100.00;151182.84;5069772;28;20154;-76
2022/12/11 07:26:42;;;;;;;28.08;12.48;;;;;;;-5.56;100.00;151171.41;5059177;28;20123;-75
2022/12/11 07:29:07;;;;;;;28.27;12.60;;;;;;;-5.56;100.00;151171.41;5054823;28;20033;-76
2022/12/11 07:31:33;;;;;;;31.83;13.07;;;;;;;-5.55;100.00;151173.94;5041153;28;20101;-76
2022/12/11 07:34:02;;;;;;;29.45;13.05;;;;;;;-5.51;100.00;151182.84;5049499;28;20036;-76
2022/12/11 07:36:29;;;;;;;27.63;12.20;;;;;;;-5.47;100.00;151192.97;5049654;28;20044;-76
2022/12/11 07:38:55;;;;;;;31.65;13.18;;;;;;;-5.54;100.00;151176.50;5036917;28;20128;-75
2022/12/11 07:41:22;;;;;;;29.35;13.40;;;;;;;-5.64;100.00;151151.13;5034504;28;20724;-76
2022/12/11 07:43:52;;;;;;;31.23;13.93;;;;;;;-5.70;100.00;151137.19;5050536;28;20127;-77
2022/12/11 07:46:23;;;;;;;28.08;12.85;;;;;;;-5.70;100.00;151137.19;5035128;28;20079;-76
2022/12/11 07:48:49;;;;;;;29.85;12.93;;;;;;;-5.65;100.00;151147.31;5017212;28;20111;-76
2022/12/11 07:51:18;;;;;;;31.15;14.52;;;;;;;-5.61;100.00;151158.75;5032536;28;20067;-76
2022/12/11 07:53:46;;;;;;;29.42;14.52;;;;;;;-5.53;100.00;151177.75;5034100;28;20044;-76
2022/12/11 07:56:11;;;;;;;26.88;12.50;;;;;;;-5.49;100.00;151189.16;5074151;28;20036;-76
2022/12/11 07:58:37;;;;;;;28.83;13.63;;;;;;;-5.50;100.00;151185.34;5031394;28;20406;-76
2022/12/11 08:01:30;;;;;;;30.02;13.18;;;;;;;-5.50;100.00;151186.66;5040411;28;20166;-75
2022/12/11 08:03:57;;;;;;;27.85;11.98;;;;;;;-5.42;100.00;151205.66;5010585;28;20048;-76
2022/12/11 08:06:29;;;;;;;27.90;12.60;;;;;;;-5.42;100.00;151204.41;5034991;28;21055;-76
2022/12/11 08:08:56;;;;;;;29.75;13.20;;;;;;;-5.49;100.00;151187.91;5040611;28;20097;-76
2022/12/11 08:11:22;;;;;;;27.20;12.52;;;;;;;-5.42;100.00;151204.41;5037612;28;20063;-76
2022/12/11 08:13:48;;;;;;;27.00;13.07;;;;;;;-5.46;100.00;151195.53;5037337;28;20036;-76
2022/12/11 08:16:15;;;;;;;26.92;12.55;;;;;;;-5.43;100.00;151201.84;5017118;28;20079;-76
2022/12/11 08:18:42;;;;;;;31.55;13.48;;;;;;;-5.38;100.00;151215.81;5036048;28;20032;-76
2022/12/11 08:21:14;;;;;;;30.83;14.05;;;;;;;-5.32;100.00;151231.00;5017636;28;20489;-76
2022/12/11 08:23:40;;;;;;;27.73;12.13;;;;;;;-5.23;100.00;151252.59;5056013;28;20435;-76
2022/12/11 08:26:07;;;;;;;30.10;12.50;;;;;;;-5.18;100.00;151265.28;5055319;28;20059;-76
2022/12/11 08:28:34;;;;;;;26.30;11.38;;;;;;;-5.06;100.00;151294.44;5051891;28;20033;-76
2022/12/11 08:31:02;;;;;;;27.42;12.90;;;;;;;-5.03;100.00;151302.03;5056807;28;20096;-76
2022/12/11 08:33:27;;;;;;;27.25;12.23;;;;;;;-4.94;100.00;151323.63;5019755;28;20561;-75
2022/12/11 08:35:53;;;;;;;23.65;11.30;;;;;;;-4.93;100.00;151327.44;5031647;28;20044;-76
2022/12/11 08:38:19;;;;;;;27.50;12.65;;;;;;;-4.93;100.00;151326.19;5016794;28;20451;-76
2022/12/11 08:40:44;;;;;;;29.77;11.90;;;;;;;-4.95;100.00;151321.13;5023141;28;20035;-76
2022/12/11 08:43:10;;;;;;;27.08;12.02;;;;;;;-4.84;100.00;151347.72;5055791;28;20081;-77
2022/12/11 08:45:36;;;;;;;27.02;12.60;;;;;;;-4.85;100.00;151345.22;5053548;28;20147;-76
2022/12/11 08:48:02;;;;;;;26.00;12.65;;;;;;;-4.83;100.00;151351.53;5068059;28;20516;-75
2022/12/11 08:50:28;;;;;;;31.75;13.63;;;;;;;-4.77;100.00;151366.75;5017881;28;20033;-76
2022/12/11 08:52:54;;;;;;;28.10;11.73;;;;;;;-4.74;100.00;151374.38;5030500;28;20071;-76
2022/12/11 08:55:20;;;;;;;31.70;15.02;;;;;;;-4.68;100.00;151388.34;5047746;28;20036;-75
2022/12/11 08:57:46;;;;;;;30.90;13.13;;;;;;;-4.56;100.00;151418.81;5037328;28;20500;-76
2022/12/11 09:00:13;;;;;;;29.63;13.73;;;;;;;-4.55;100.00;151420.06;5047193;28;20787;-76
2022/12/11 09:02:39;;;;;;;28.10;13.13;;;;;;;-4.49;100.00;151435.28;5044258;28;20036;-76
2022/12/11 09:05:06;;;;;;;29.52;14.15;;;;;;;-4.43;100.00;151450.50;5051143;28;20058;-76
2022/12/11 09:07:33;;;;;;;30.13;13.07;;;;;;;-4.41;100.00;151455.59;5023748;28;20024;-76
2022/12/11 09:09:59;;;;;;;28.45;13.10;;;;;;;-4.34;100.00;151472.09;5037885;28;20099;-76
2022/12/11 09:12:26;;;;;;;27.88;12.48;;;;;;;-4.36;100.00;151467.03;5030399;28;20068;-76
2022/12/11 09:14:52;;;;;;;26.92;12.25;;;;;;;-4.28;100.00;151487.31;5038784;28;20472;-76
2022/12/11 09:17:17;;;;;;;28.75;12.90;;;;;;;-4.29;100.00;151484.81;5031953;28;20050;-76
2022/12/11 09:19:43;;;;;;;30.50;13.80;;;;;;;-4.23;100.00;151498.78;5048446;28;20492;-77
2022/12/11 09:22:10;;;;;;;30.40;13.65;;;;;;;-4.20;100.00;151507.66;5047940;28;20058;-76
2022/12/11 09:24:36;;;;;;;27.80;13.07;;;;;;;-4.13;100.00;151525.41;5045757;28;20024;-76
2022/12/11 09:27:03;;;;;;;28.55;13.55;;;;;;;-4.08;100.00;151535.59;5045468;28;20539;-76
2022/12/11 09:29:29;;;;;;;27.10;13.40;;;;;;;-4.05;100.00;151544.50;5021173;28;20040;-76
2022/12/11 09:31:55;;;;;;;28.73;13.27;;;;;;;-4.01;100.00;151554.63;5031206;28;20051;-77
2022/12/11 09:34:21;;;;;;;27.65;13.13;;;;;;;-3.98;100.00;151562.22;5018236;28;20048;-76
2022/12/11 09:36:47;;;;;;;26.67;12.40;;;;;;;-3.86;100.00;151591.47;5029597;28;20039;-76
2022/12/11 09:39:14;;;;;;;23.08;12.38;;;;;;;-3.74;100.00;151620.66;5055614;28;20029;-76
2022/12/11 09:41:54;;;;;;;24.85;12.18;;;;;;;-3.67;100.00;151638.44;5034860;28;20100;-76
2022/12/11 09:44:26;;;;;;;26.63;12.80;;;;;;;-3.63;100.00;151648.59;5027529;28;20519;-77
2022/12/11 09:46:51;;;;;;;24.33;11.68;;;;;;;-3.62;100.00;151649.84;5016733;28;20054;-76
2022/12/11 09:49:23;;;;;;;23.65;12.48;;;;;;;-3.51;100.00;151677.81;5026259;28;20025;-76
2022/12/11 09:51:59;;;;;;;24.70;12.10;;;;;;;-3.41;100.00;151701.94;5051105;28;20064;-76
2022/12/11 09:54:25;;;;;;;22.73;11.88;;;;;;;-3.36;100.00;151715.91;5036908;28;20091;-76
2022/12/11 09:57:07;;;;;;;23.75;12.02;;;;;;;-3.33;100.00;151723.53;5037599;28;20074;-76
2022/12/11 09:59:56;;;;;;;23.23;11.63;;;;;;;-3.28;100.00;151734.94;5017862;28;20093;-76
2022/12/11 10:02:31;;;;;;;23.17;12.07;;;;;;;-3.30;100.00;151728.63;5045444;28;20542;-76
2022/12/11 10:05:26;;;;;;;25.02;12.43;;;;;;;-3.21;100.00;151751.50;5051183;28;20036;-75
2022/12/11 10:08:02;;;;;;;24.77;11.52;;;;;;;-3.14;100.00;151769.28;5033911;28;20607;-75
2022/12/11 10:10:42;;;;;;;23.58;10.63;;;;;;;-3.19;100.00;151756.56;5053495;28;20037;-75
2022/12/11 10:13:31;;;;;;;21.48;10.00;;;;;;;-2.98;100.00;151809.91;5055222;28;20735;-75
2022/12/11 10:16:04;;;;;;;21.92;10.57;;;;;;;-2.96;100.00;151815.03;5048313;28;20086;-76
2022/12/11 10:18:31;;;;;;;20.17;9.52;;;;;;;-2.95;100.00;151816.28;5038845;28;20562;-76
2022/12/11 10:21:01;;;;;;;19.45;9.48;;;;;;;-2.88;100.00;151832.78;5018722;28;20032;-76
2022/12/11 10:23:34;;;;;;;17.13;8.82;;;;;;;-2.82;100.00;151849.34;5015900;28;20045;-75
2022/12/11 10:26:08;;;;;;;16.63;9.35;;;;;;;-2.75;100.00;151867.13;5034221;28;20731;-77
2022/12/11 10:28:34;;;;;;;14.85;8.32;;;;;;;-2.74;100.00;151868.38;5031112;28;20070;-76
2022/12/11 10:31:09;;;;;;;15.32;8.63;;;;;;;-2.75;100.00;151867.13;5034050;28;20093;-75
2022/12/11 10:33:57;;;;;;;18.85;10.23;;;;;;;-2.72;100.00;151873.47;5035936;28;20044;-75
2022/12/11 10:36:36;;;;;;;18.88;10.02;;;;;;;-2.64;100.00;151893.78;5044889;28;20079;-75
2022/12/11 10:39:02;;;;;;;15.95;9.02;;;;;;;-2.76;100.00;151864.56;5039284;28;20062;-76
2022/12/11 10:41:40;;;;;;;15.85;9.07;;;;;;;-2.56;100.00;151912.91;5047627;28;20045;-75
2022/12/11 10:44:20;;;;;;;15.88;8.63;;;;;;;-2.53;98.26;151919.25;5038767;28;20145;-76
2022/12/11 10:46:59;;;;;;;15.32;8.30;;;;;;;-2.46;99.06;151938.31;5044568;28;20037;-76
2022/12/11 10:49:28;;;;;;;14.75;8.35;;;;;;;-2.36;98.87;151963.72;5033788;28;20069;-75
2022/12/11 10:51:56;;;;;;;15.40;8.63;;;;;;;-2.48;98.80;151933.22;5044656;28;20563;-75
2022/12/11 10:54:37;;;;;;;20.63;9.95;;;;;;;-2.53;99.27;151919.25;5072848;28;20032;-76
2022/12/11 10:57:05;;;;;;;17.25;9.38;;;;;;;-2.57;99.88;151910.34;5071538;28;20505;-75
2022/12/11 10:59:33;;;;;;;19.92;9.73;;;;;;;-2.53;99.80;151919.25;5065165;28;20033;-75
2022/12/11 11:01:59;;;;;;;19.35;9.98;;;;;;;-2.49;99.50;151929.41;5043409;28;20625;-75
2022/12/11 11:04:35;;;;;;;16.55;9.20;;;;;;;-2.53;99.54;151919.25;5051925;28;20047;-75
2022/12/11 11:07:18;;;;;;;21.23;10.35;;;;;;;-2.44;100.00;151943.38;5035886;28;20039;-75
2022/12/11 11:09:44;;;;;;;;;;;;;;;-2.43;99.17;151945.94;5042584;28;20036;-75
2022/12/11 11:12:25;;;;;;;17.77;9.40;;;;;;;-2.35;98.43;151965.00;5022351;28;20286;-75
2022/12/11 11:14:59;;;;;;;17.35;8.85;;;;;;;-2.40;98.04;151953.53;5039153;28;20343;-75
2022/12/11 11:17:25;;;;;;;17.95;9.10;;;;;;;-2.44;99.60;151942.13;5058786;28;20494;-75
2022/12/11 11:19:51;;;;;;;20.65;10.65;;;;;;;-2.39;99.45;151954.84;5048388;28;20108;-75
2022/12/11 11:22:18;;;;;;;18.58;10.88;;;;;;;-2.38;100.00;151957.38;5051303;28;20110;-75